createdAt,value
2023-07-18T00:02:15.447Z,15.30
2023-07-18T00:04:42.294Z,15.30
2023-07-18T00:07:10.702Z,15.40
2023-07-18T00:09:38.914Z,15.30
2023-07-18T00:12:09.161Z,15.30
2023-07-18T00:14:35.666Z,15.30
2023-07-18T00:17:03.454Z,15.20
2023-07-18T00:19:30.926Z,15.20
2023-07-18T00:21:58.077Z,15.20
2023-07-18T00:24:25.117Z,15.10
2023-07-18T00:26:51.835Z,15.10
2023-07-18T00:29:18.942Z,15.00
2023-07-18T00:31:45.751Z,15.00
2023-07-18T00:34:12.723Z,15.00
2023-07-18T00:36:39.554Z,15.10
2023-07-18T00:39:08.883Z,14.90
2023-07-18T00:41:35.615Z,14.80
2023-07-18T00:44:02.488Z,14.80
2023-07-18T00:46:30.432Z,14.90
2023-07-18T00:48:57.634Z,14.90
2023-07-18T00:51:26.184Z,14.90
2023-07-18T00:53:54.183Z,14.70
2023-07-18T00:56:23.350Z,14.60
2023-07-18T00:58:50.359Z,14.70
2023-07-18T01:01:19.590Z,14.70
2023-07-18T01:03:46.364Z,14.70
2023-07-18T01:06:13.295Z,14.80
2023-07-18T01:08:42.681Z,14.70
2023-07-18T01:11:10.788Z,14.60
2023-07-18T01:13:37.507Z,14.70
2023-07-18T01:16:04.408Z,14.70
2023-07-18T01:18:33.545Z,14.60
2023-07-18T01:21:02.205Z,14.60
2023-07-18T01:23:29.441Z,14.60
2023-07-18T01:25:57.597Z,14.60
2023-07-18T01:28:24.163Z,14.50
2023-07-18T01:30:51.351Z,14.40
2023-07-18T01:33:17.983Z,14.50
2023-07-18T01:35:44.793Z,14.50
2023-07-18T01:38:11.798Z,14.50
2023-07-18T01:40:38.418Z,14.50
2023-07-18T01:43:05.938Z,14.50
2023-07-18T01:45:33.077Z,14.40
2023-07-18T01:48:01.951Z,14.40
2023-07-18T01:50:28.846Z,14.40
2023-07-18T01:52:55.747Z,14.40
2023-07-18T01:55:22.355Z,14.30
2023-07-18T01:57:50.426Z,14.40
2023-07-18T02:00:21.070Z,14.30
2023-07-18T02:02:50.468Z,14.30
2023-07-18T02:05:25.427Z,14.30
2023-07-18T02:07:52.593Z,14.30
2023-07-18T02:10:21.587Z,14.20
2023-07-18T02:13:05.520Z,14.20
2023-07-18T02:15:33.221Z,14.10
2023-07-18T02:18:00.040Z,14.10
2023-07-18T02:20:27.080Z,14.20
2023-07-18T02:22:57.715Z,14.10
2023-07-18T02:25:25.599Z,14.20
2023-07-18T02:27:53.010Z,14.10
2023-07-18T02:30:19.773Z,14.10
2023-07-18T02:32:47.104Z,14.10
2023-07-18T02:35:21.748Z,14.20
2023-07-18T02:37:48.952Z,14.10
2023-07-18T02:40:18.433Z,14.10
2023-07-18T02:42:45.465Z,14.00
2023-07-18T02:45:12.486Z,14.00
2023-07-18T02:47:40.155Z,14.10
2023-07-18T02:50:07.614Z,14.10
2023-07-18T02:52:34.332Z,14.00
2023-07-18T02:55:01.195Z,14.10
2023-07-18T02:57:29.059Z,14.10
2023-07-18T02:59:57.392Z,14.00
2023-07-18T03:02:24.425Z,13.90
2023-07-18T03:04:51.805Z,13.90
2023-07-18T03:07:19.468Z,13.80
2023-07-18T03:09:49.229Z,13.80
2023-07-18T03:12:16.061Z,13.90
2023-07-18T03:14:43.140Z,13.80
2023-07-18T03:17:11.273Z,13.80
2023-07-18T03:19:37.930Z,13.70
2023-07-18T03:22:04.857Z,13.80
2023-07-18T03:24:31.667Z,13.80
2023-07-18T03:26:58.320Z,13.80
2023-07-18T03:29:26.380Z,13.70
2023-07-18T03:31:53.984Z,13.80
2023-07-18T03:34:22.052Z,13.80
2023-07-18T03:36:48.623Z,13.70
2023-07-18T03:39:18.268Z,13.80
2023-07-18T03:41:48.227Z,13.80
2023-07-18T03:44:14.865Z,13.80
2023-07-18T03:46:41.714Z,13.80
2023-07-18T03:49:12.750Z,13.80
2023-07-18T03:51:40.712Z,13.80
2023-07-18T03:54:07.366Z,13.80
2023-07-18T03:56:35.107Z,13.90
2023-07-18T03:59:02.705Z,13.90
2023-07-18T04:01:29.548Z,13.90
2023-07-18T04:03:56.612Z,13.90
2023-07-18T04:06:23.209Z,13.90
2023-07-18T04:08:49.824Z,14.00
2023-07-18T04:11:16.432Z,14.00
2023-07-18T04:13:44.020Z,14.00
2023-07-18T04:16:10.661Z,14.00
2023-07-18T04:18:37.247Z,14.00
2023-07-18T04:21:04.609Z,14.10
2023-07-18T04:23:32.140Z,14.10
2023-07-18T04:26:03.239Z,14.10
2023-07-18T04:28:33.897Z,14.20
2023-07-18T04:31:00.757Z,14.20
2023-07-18T04:33:27.365Z,14.20
2023-07-18T04:35:54.105Z,14.30
2023-07-18T04:38:21.807Z,14.30
2023-07-18T04:40:49.189Z,14.40
2023-07-18T04:43:16.517Z,14.40
2023-07-18T04:45:47.988Z,14.40
2023-07-18T04:48:15.397Z,14.40
2023-07-18T04:50:43.324Z,14.50
2023-07-18T04:53:11.158Z,14.60
2023-07-18T04:55:39.946Z,14.50
2023-07-18T04:58:08.218Z,14.70
2023-07-18T05:00:35.847Z,14.80
2023-07-18T05:03:03.846Z,14.70
2023-07-18T05:05:31.056Z,14.90
2023-07-18T05:08:01.778Z,14.80
2023-07-18T05:10:29.700Z,15.00
2023-07-18T05:12:57.780Z,15.00
2023-07-18T05:15:24.922Z,15.10
2023-07-18T05:17:51.876Z,15.30
2023-07-18T05:20:18.551Z,15.30
2023-07-18T05:22:46.442Z,15.50
2023-07-18T05:25:15.929Z,15.70
2023-07-18T05:27:43.088Z,15.70
2023-07-18T05:30:15.346Z,15.80
2023-07-18T05:32:45.434Z,16.00
2023-07-18T05:35:15.034Z,16.00
2023-07-18T05:37:43.303Z,15.90
2023-07-18T05:40:11.293Z,16.00
2023-07-18T05:42:42.434Z,16.10
2023-07-18T05:45:10.889Z,16.30
2023-07-18T05:47:39.620Z,16.50
2023-07-18T05:50:07.667Z,16.40
2023-07-18T05:52:35.113Z,16.60
2023-07-18T05:55:02.287Z,16.70
2023-07-18T05:57:29.986Z,17.00
2023-07-18T05:59:56.596Z,17.20
2023-07-18T06:02:24.444Z,18.50
2023-07-18T06:04:51.362Z,19.10
2023-07-18T06:07:18.941Z,21.10
2023-07-18T06:09:48.852Z,23.40
2023-07-18T06:12:17.803Z,23.20
2023-07-18T06:14:44.468Z,23.00
2023-07-18T06:17:11.133Z,23.80
2023-07-18T06:19:37.747Z,25.10
2023-07-18T06:22:04.379Z,25.80
2023-07-18T06:24:31.942Z,26.70
2023-07-18T06:26:58.566Z,27.40
2023-07-18T06:29:28.828Z,27.50
2023-07-18T06:31:57.972Z,29.70
2023-07-18T06:34:24.746Z,30.10
2023-07-18T06:36:51.388Z,30.70
2023-07-18T06:39:18.404Z,31.20
2023-07-18T06:41:45.751Z,32.20
2023-07-18T06:44:13.659Z,31.30
2023-07-18T06:46:43.439Z,32.60
2023-07-18T06:49:11.131Z,30.90
2023-07-18T06:51:37.693Z,29.70
2023-07-18T06:54:04.336Z,32.30
2023-07-18T06:56:31.199Z,31.10
2023-07-18T06:58:57.761Z,32.50
2023-07-18T07:01:24.735Z,34.20
2023-07-18T07:03:51.658Z,32.30
2023-07-18T07:06:19.645Z,31.80
2023-07-18T07:08:46.421Z,32.10
2023-07-18T07:11:13.009Z,33.80
2023-07-18T07:13:39.970Z,35.20
2023-07-18T07:16:06.635Z,34.80
2023-07-18T07:18:33.508Z,37.40
2023-07-18T07:21:01.136Z,37.50
2023-07-18T07:23:29.436Z,33.30
2023-07-18T07:25:57.436Z,33.80
2023-07-18T07:28:26.689Z,32.10
2023-07-18T07:30:53.317Z,33.40
2023-07-18T07:33:20.530Z,34.90
2023-07-18T07:35:47.877Z,35.80
2023-07-18T07:38:16.361Z,36.40
2023-07-18T07:40:43.147Z,34.40
2023-07-18T07:43:10.870Z,37.10
2023-07-18T07:45:37.569Z,35.60
2023-07-18T07:48:06.300Z,37.80
2023-07-18T07:50:39.532Z,35.40
2023-07-18T07:53:06.227Z,35.40
2023-07-18T07:55:35.957Z,34.00
2023-07-18T07:58:02.545Z,32.90
2023-07-18T08:00:29.985Z,31.10
2023-07-18T08:02:56.645Z,31.50
2023-07-18T08:05:24.419Z,34.50
2023-07-18T08:07:53.762Z,32.50
2023-07-18T08:10:20.586Z,32.00
2023-07-18T08:12:47.951Z,32.70
2023-07-18T08:15:14.514Z,31.00
2023-07-18T08:17:41.608Z,28.70
2023-07-18T08:20:10.072Z,31.40
2023-07-18T08:22:36.962Z,33.00
2023-07-18T08:25:04.969Z,33.30
2023-07-18T08:27:32.063Z,34.20
2023-07-18T08:29:58.640Z,34.00
2023-07-18T08:32:28.958Z,35.10
2023-07-18T08:34:56.898Z,31.20
2023-07-18T08:37:23.831Z,29.50
2023-07-18T08:39:50.358Z,28.30
2023-07-18T08:42:20.661Z,28.10
2023-07-18T08:44:50.377Z,32.50
2023-07-18T08:47:17.922Z,32.80
2023-07-18T08:49:44.569Z,31.00
2023-07-18T08:52:11.597Z,29.90
2023-07-18T08:54:38.381Z,30.60
2023-07-18T08:57:07.472Z,30.20
2023-07-18T08:59:34.645Z,31.80
2023-07-18T09:02:01.638Z,33.10
2023-07-18T09:04:28.590Z,30.90
2023-07-18T09:07:00.937Z,28.30
2023-07-18T09:09:27.875Z,31.00
2023-07-18T09:12:04.710Z,33.50
2023-07-18T09:14:35.540Z,33.60
2023-07-18T09:17:07.041Z,30.40
2023-07-18T09:19:49.970Z,29.20
2023-07-18T09:22:20.561Z,32.60
2023-07-18T09:24:49.178Z,31.20
2023-07-18T09:27:19.894Z,31.80
2023-07-18T09:29:49.849Z,33.40
2023-07-18T09:32:21.540Z,34.20
2023-07-18T09:34:58.975Z,32.00
2023-07-18T09:37:25.861Z,29.90
2023-07-18T09:39:53.368Z,31.40
2023-07-18T09:42:21.195Z,31.20
2023-07-18T09:44:52.547Z,32.20
2023-07-18T09:47:20.896Z,32.90
2023-07-18T09:49:48.207Z,33.70
2023-07-18T09:52:17.498Z,32.00
2023-07-18T09:54:45.431Z,31.20
2023-07-18T09:57:13.465Z,32.90
2023-07-18T09:59:40.922Z,28.90
2023-07-18T10:02:10.667Z,29.80
2023-07-18T10:04:38.049Z,29.30
2023-07-18T10:07:05.130Z,29.60
2023-07-18T10:09:33.264Z,28.30
2023-07-18T10:12:00.575Z,28.60
2023-07-18T10:14:49.338Z,31.10
2023-07-18T10:17:48.451Z,30.70
2023-07-18T10:20:38.237Z,30.10
2023-07-18T10:23:05.358Z,29.30
2023-07-18T10:25:33.007Z,29.10
2023-07-18T10:28:02.688Z,29.30
2023-07-18T10:30:43.632Z,28.20
2023-07-18T10:33:11.402Z,28.60
2023-07-18T10:35:43.417Z,28.30
2023-07-18T10:38:10.426Z,29.60
2023-07-18T10:40:40.560Z,31.00
2023-07-18T10:43:08.179Z,30.90
2023-07-18T10:45:42.621Z,29.90
2023-07-18T10:48:21.723Z,29.20
2023-07-18T10:50:49.861Z,30.70
2023-07-18T10:53:22.010Z,31.20
2023-07-18T10:55:49.897Z,30.90
2023-07-18T10:58:23.083Z,31.80
2023-07-18T11:00:53.859Z,31.80
2023-07-18T11:03:37.448Z,31.00
2023-07-18T11:06:08.155Z,31.00
2023-07-18T11:08:34.993Z,32.20
2023-07-18T11:11:06.494Z,31.70
2023-07-18T11:13:35.690Z,32.40
2023-07-18T11:16:09.259Z,31.80
2023-07-18T11:18:38.631Z,30.80
2023-07-18T11:21:11.772Z,29.90
2023-07-18T11:23:39.608Z,31.30
2023-07-18T11:26:17.681Z,32.10
2023-07-18T11:28:45.710Z,32.10
2023-07-18T11:31:41.112Z,30.80
2023-07-18T11:34:10.939Z,29.20
2023-07-18T11:36:38.392Z,29.70
2023-07-18T11:39:22.158Z,29.50
2023-07-18T11:41:50.783Z,30.60
2023-07-18T11:44:27.775Z,30.60
2023-07-18T11:46:56.011Z,31.20
2023-07-18T11:49:38.656Z,29.90
2023-07-18T11:52:07.354Z,29.70
2023-07-18T11:54:39.395Z,30.70
2023-07-18T11:57:06.502Z,30.20
2023-07-18T11:59:33.743Z,30.80
2023-07-18T12:02:00.854Z,31.20
2023-07-18T12:04:27.974Z,31.60
2023-07-18T12:06:55.711Z,32.00
2023-07-18T12:09:22.665Z,31.60
2023-07-18T12:11:49.741Z,31.70
2023-07-18T12:14:16.342Z,31.60
2023-07-18T12:16:42.939Z,30.50
2023-07-18T12:19:10.541Z,30.70
2023-07-18T12:21:38.125Z,30.90
2023-07-18T12:24:07.943Z,30.40
2023-07-18T12:26:35.728Z,29.40
2023-07-18T12:29:04.692Z,29.40
2023-07-18T12:31:34.822Z,28.80
2023-07-18T12:34:01.827Z,28.90
2023-07-18T12:36:28.371Z,29.40
2023-07-18T12:38:55.550Z,30.10
2023-07-18T12:41:22.589Z,29.80
2023-07-18T12:43:49.632Z,29.90
2023-07-18T12:46:17.699Z,29.70
2023-07-18T12:51:14.199Z,29.40
2023-07-18T12:53:41.926Z,30.40
2023-07-18T12:56:10.180Z,30.10
2023-07-18T12:58:37.008Z,31.20
2023-07-18T13:01:08.124Z,29.30
2023-07-18T13:03:35.277Z,30.00
2023-07-18T13:06:07.290Z,29.10
2023-07-18T13:08:36.613Z,29.40
2023-07-18T13:11:03.859Z,29.70
2023-07-18T13:13:30.416Z,29.70
2023-07-18T13:15:57.231Z,30.10
2023-07-18T13:18:27.244Z,29.70
2023-07-18T13:20:53.936Z,28.80
2023-07-18T13:23:20.529Z,28.30
2023-07-18T13:25:47.639Z,28.10
2023-07-18T13:28:14.388Z,27.70
2023-07-18T13:30:41.889Z,27.80
2023-07-18T13:33:09.821Z,28.50
2023-07-18T13:35:37.206Z,28.60
2023-07-18T13:38:03.828Z,28.70
2023-07-18T13:40:30.426Z,28.50
2023-07-18T13:43:06.496Z,29.40
2023-07-18T13:45:36.359Z,29.10
2023-07-18T13:48:03.985Z,29.50
2023-07-18T13:50:32.741Z,29.20
2023-07-18T13:53:01.374Z,30.20
2023-07-18T13:55:28.589Z,29.90
2023-07-18T13:57:57.636Z,30.40
2023-07-18T14:00:27.985Z,30.00
2023-07-18T14:02:56.154Z,30.70
2023-07-18T14:05:26.341Z,30.30
2023-07-18T14:07:55.238Z,29.30
2023-07-18T14:10:25.859Z,30.00
2023-07-18T14:12:59.754Z,30.50
2023-07-18T14:15:26.543Z,30.20
2023-07-18T14:20:36.878Z,29.90
2023-07-18T14:23:04.524Z,30.70
2023-07-18T14:25:31.140Z,30.90
2023-07-18T14:27:58.274Z,30.40
2023-07-18T14:30:25.540Z,30.40
2023-07-18T14:32:54.914Z,30.40
2023-07-18T14:35:22.009Z,30.70
2023-07-18T14:37:49.344Z,30.60
2023-07-18T14:40:17.136Z,31.60
2023-07-18T14:42:45.895Z,31.00
2023-07-18T14:45:12.732Z,30.80
2023-07-18T14:47:39.295Z,30.60
2023-07-18T14:50:06.454Z,29.40
2023-07-18T14:52:33.096Z,29.50
2023-07-18T14:55:00.741Z,28.80
2023-07-18T14:57:28.331Z,28.70
2023-07-18T14:59:57.524Z,29.20
2023-07-18T15:02:24.134Z,29.80
2023-07-18T15:04:50.758Z,29.40
2023-07-18T15:07:19.362Z,29.80
2023-07-18T15:09:46.053Z,29.70
2023-07-18T15:12:12.708Z,29.90
2023-07-18T15:14:39.355Z,28.60
2023-07-18T15:17:06.500Z,28.50
2023-07-18T15:19:35.055Z,28.40
2023-07-18T15:22:04.060Z,28.70
2023-07-18T15:24:31.937Z,28.80
2023-07-18T15:26:59.059Z,29.00
2023-07-18T15:29:26.218Z,29.80
2023-07-18T15:31:53.545Z,29.80
2023-07-18T15:34:20.819Z,29.70
2023-07-18T15:36:48.310Z,29.90
2023-07-18T15:39:16.653Z,29.70
2023-07-18T15:41:44.046Z,29.90
2023-07-18T15:44:15.670Z,30.10
2023-07-18T15:49:49.267Z,29.40
2023-07-18T15:52:16.338Z,29.70
2023-07-18T15:54:44.347Z,28.90
2023-07-18T15:57:11.336Z,28.60
2023-07-18T15:59:38.472Z,28.50
2023-07-18T16:02:07.398Z,28.60
2023-07-18T16:04:33.947Z,29.90
2023-07-18T16:07:03.543Z,29.60
2023-07-18T16:09:32.610Z,29.70
2023-07-18T16:11:59.378Z,29.60
2023-07-18T16:14:29.112Z,28.80
2023-07-18T16:16:59.803Z,27.90
2023-07-18T16:19:27.540Z,28.40
2023-07-18T16:21:54.121Z,28.90
2023-07-18T16:24:20.921Z,29.10
2023-07-18T16:26:47.540Z,29.90
2023-07-18T16:29:15.870Z,30.00
2023-07-18T16:31:42.445Z,28.90
2023-07-18T16:34:09.073Z,28.80
2023-07-18T16:36:36.737Z,28.30
2023-07-18T16:39:03.436Z,28.00
2023-07-18T16:41:31.583Z,27.90
2023-07-18T16:43:58.601Z,27.70
2023-07-18T16:46:25.211Z,27.90
2023-07-18T16:48:53.347Z,27.30
2023-07-18T16:51:20.203Z,27.00
2023-07-18T16:53:50.106Z,27.00
2023-07-18T16:56:19.550Z,26.70
2023-07-18T16:58:46.390Z,26.60
2023-07-18T17:01:19.014Z,26.80
2023-07-18T17:03:45.769Z,26.60
2023-07-18T17:06:12.976Z,26.40
2023-07-18T17:08:41.623Z,26.30
2023-07-18T17:11:08.278Z,26.20
2023-07-18T17:13:35.618Z,26.60
2023-07-18T17:16:03.678Z,27.20
2023-07-18T17:18:30.612Z,26.40
2023-07-18T17:20:57.490Z,26.70
2023-07-18T17:23:25.345Z,26.30
2023-07-18T17:25:51.987Z,25.80
2023-07-18T17:28:19.951Z,25.90
2023-07-18T17:30:46.612Z,25.80
2023-07-18T17:33:14.115Z,26.20
2023-07-18T17:35:40.664Z,25.90
2023-07-18T17:38:09.366Z,25.80
2023-07-18T17:40:35.929Z,25.30
2023-07-18T17:43:06.063Z,24.90
2023-07-18T17:45:32.759Z,25.10
2023-07-18T17:47:59.821Z,25.00
2023-07-18T17:50:26.619Z,25.10
2023-07-18T17:52:54.316Z,25.10
2023-07-18T17:55:21.764Z,24.80
2023-07-18T17:57:48.398Z,24.60
2023-07-18T18:00:16.208Z,24.40
2023-07-18T18:02:42.859Z,24.50
2023-07-18T18:05:34.603Z,24.40
2023-07-18T18:08:02.372Z,24.40
2023-07-18T18:10:29.367Z,24.30
2023-07-18T18:12:55.964Z,23.70
2023-07-18T18:15:22.545Z,23.70
2023-07-18T18:17:50.698Z,23.50
2023-07-18T18:20:18.639Z,23.60
2023-07-18T18:22:45.569Z,23.30
2023-07-18T18:25:12.199Z,23.30
2023-07-18T18:27:39.639Z,23.20
2023-07-18T18:30:09.135Z,23.00
2023-07-18T18:32:36.817Z,23.00
2023-07-18T18:35:08.181Z,23.00
2023-07-18T18:37:37.172Z,22.70
2023-07-18T18:40:04.666Z,22.50
2023-07-18T18:42:32.511Z,22.40
2023-07-18T18:44:59.098Z,22.30
2023-07-18T18:47:25.982Z,22.20
2023-07-18T18:49:52.643Z,22.10
2023-07-18T18:52:19.710Z,21.90
2023-07-18T18:54:46.335Z,21.80
2023-07-18T18:57:16.060Z,21.60
2023-07-18T18:59:44.814Z,21.50
2023-07-18T19:02:12.078Z,21.30
2023-07-18T19:04:38.704Z,21.30
2023-07-18T19:07:05.472Z,21.20
2023-07-18T19:09:32.389Z,21.00
2023-07-18T19:11:59.268Z,20.80
2023-07-18T19:14:25.814Z,20.70
2023-07-18T19:16:53.863Z,20.60
2023-07-18T19:19:20.903Z,20.50
2023-07-18T19:21:49.648Z,20.40
2023-07-18T19:24:16.511Z,20.30
2023-07-18T19:26:43.561Z,20.20
2023-07-18T19:29:10.330Z,20.00
2023-07-18T19:31:37.241Z,20.00
2023-07-18T19:34:05.472Z,19.80
2023-07-18T19:36:32.744Z,19.70
2023-07-18T19:38:59.712Z,19.60
2023-07-18T19:41:26.584Z,19.50
2023-07-18T19:43:54.234Z,19.40
2023-07-18T19:46:33.178Z,19.20
2023-07-18T19:49:00.232Z,19.10
2023-07-18T19:51:32.985Z,19.10
2023-07-18T19:54:00.176Z,19.00
2023-07-18T19:56:26.726Z,18.90
2023-07-18T19:59:00.989Z,18.80
2023-07-18T20:01:29.114Z,18.80
2023-07-18T20:03:59.684Z,18.50
2023-07-18T20:06:30.076Z,18.60
2023-07-18T20:09:03.325Z,18.40
2023-07-18T20:11:51.071Z,18.30
2023-07-18T20:14:27.969Z,18.30
2023-07-18T20:17:02.179Z,18.20
2023-07-18T20:19:34.773Z,18.20
2023-07-18T20:23:01.907Z,18.10
2023-07-18T20:25:37.748Z,18.00
2023-07-18T20:28:13.376Z,17.90
2023-07-18T20:30:46.703Z,17.80
2023-07-18T20:33:59.651Z,17.70
2023-07-18T20:36:52.239Z,17.80
2023-07-18T20:39:22.165Z,17.60
2023-07-18T20:41:53.266Z,17.50
2023-07-18T20:47:16.715Z,17.30
2023-07-18T20:50:11.286Z,17.30
2023-07-18T20:52:53.806Z,17.20
2023-07-18T20:55:22.992Z,17.20
2023-07-18T20:58:22.922Z,17.10
2023-07-18T21:00:49.644Z,17.00
2023-07-18T21:03:17.406Z,17.00
2023-07-18T21:05:48.816Z,16.90
2023-07-18T21:08:17.887Z,16.90
2023-07-18T21:10:44.686Z,16.80
2023-07-18T21:13:11.971Z,16.70
2023-07-18T21:15:38.611Z,16.60
2023-07-18T21:18:06.527Z,16.50
2023-07-18T21:20:33.324Z,16.50
2023-07-18T21:23:06.989Z,16.40
2023-07-18T21:25:35.049Z,16.40
2023-07-18T21:28:01.850Z,16.30
2023-07-18T21:30:28.493Z,16.20
2023-07-18T21:32:55.666Z,16.20
2023-07-18T21:35:25.319Z,16.20
2023-07-18T21:37:51.989Z,16.20
2023-07-18T21:40:20.056Z,16.20
2023-07-18T21:42:48.358Z,16.10
2023-07-18T21:45:15.951Z,16.10
2023-07-18T21:47:43.189Z,16.00
2023-07-18T21:50:09.932Z,16.00
2023-07-18T21:52:36.927Z,16.00
2023-07-18T21:55:04.019Z,15.90
2023-07-18T21:57:32.412Z,15.90
2023-07-18T21:59:59.086Z,15.80
2023-07-18T22:02:37.972Z,15.70
2023-07-18T22:05:05.372Z,15.70
2023-07-18T22:07:32.509Z,15.70
2023-07-18T22:10:06.088Z,15.60
2023-07-18T22:12:32.589Z,15.60
2023-07-18T22:14:59.433Z,15.50
2023-07-18T22:17:26.308Z,15.50
2023-07-18T22:19:53.488Z,15.50
2023-07-18T22:22:20.061Z,15.60
2023-07-18T22:24:47.003Z,15.60
2023-07-18T22:27:13.590Z,15.50
2023-07-18T22:29:40.459Z,15.50
2023-07-18T22:32:07.729Z,15.50
2023-07-18T22:34:35.844Z,15.50
2023-07-18T22:37:02.417Z,15.30
2023-07-18T22:39:35.406Z,15.30
2023-07-18T22:42:17.119Z,15.30
2023-07-18T22:44:46.515Z,15.30
2023-07-18T22:47:13.607Z,15.30
2023-07-18T22:49:40.632Z,15.20
2023-07-18T22:52:08.244Z,15.30
2023-07-18T22:54:36.115Z,15.20
2023-07-18T22:57:02.890Z,15.00
2023-07-18T22:59:29.664Z,15.00
2023-07-18T23:01:56.584Z,14.90
2023-07-18T23:04:23.099Z,15.00
2023-07-18T23:06:49.730Z,15.00
2023-07-18T23:09:16.997Z,15.10
2023-07-18T23:11:43.566Z,15.10
2023-07-18T23:14:10.152Z,15.20
2023-07-18T23:16:36.852Z,15.10
2023-07-18T23:19:03.527Z,15.20
2023-07-18T23:21:30.508Z,15.10
2023-07-18T23:23:57.392Z,15.10
2023-07-18T23:26:24.078Z,15.10
2023-07-18T23:28:50.936Z,15.20
2023-07-18T23:31:18.134Z,15.10
2023-07-18T23:33:45.224Z,15.20
2023-07-18T23:36:12.010Z,15.10
2023-07-18T23:38:40.748Z,15.00
2023-07-18T23:41:10.158Z,15.10
2023-07-18T23:43:37.907Z,15.10
2023-07-18T23:46:05.176Z,15.10
2023-07-18T23:48:33.020Z,15.10
2023-07-18T23:50:59.862Z,15.00
2023-07-18T23:53:28.990Z,15.00
2023-07-18T23:55:56.189Z,15.00
2023-07-18T23:58:23.062Z,15.00
